Time;durP1;ratioP1;P1;durP2;ratioP2;P2;SDS_P1;SDS_P2;PMS_P1;PMS_P2;Temp;Humidity;BMP_temperature;BMP_pressure;BME280_temperature;BME280_humidity;BME280_pressure;Samples;Min_cycle;Max_cycle;Signal;HPM_P1;HPM_P2
2021/12/21 00:02:25;;;;;;;6.72;3.55;;;1.80;99.90;;;;;;5019850;28;20070;-82
2021/12/21 00:04:51;;;;;;;10.05;3.67;;;1.70;99.90;;;;;;5019973;28;20030;-83
2021/12/21 00:07:17;;;;;;;5.65;3.50;;;1.80;99.90;;;;;;5019922;28;20019;-82
2021/12/21 00:09:43;;;;;;;6.35;3.38;;;1.70;99.90;;;;;;5019820;28;20025;-81
2021/12/21 00:12:10;;;;;;;6.20;3.35;;;1.70;99.90;;;;;;5019702;28;20045;-83
2021/12/21 00:14:48;;;;;;;13.13;3.47;;;1.70;99.90;;;;;;5019922;28;20102;-81
2021/12/21 00:17:29;;;;;;;11.57;3.60;;;1.70;99.90;;;;;;5019700;28;20021;-82
2021/12/21 00:20:13;;;;;;;9.45;3.60;;;1.70;99.90;;;;;;5019368;28;20014;-85
2021/12/21 00:23:29;;;;;;;6.25;3.20;;;1.70;99.90;;;;;;5018114;28;20270;-84
2021/12/21 00:25:31;;;;;;;7.25;3.40;;;1.70;99.90;;;;;;5017293;28;20050;-84
2021/12/21 00:27:56;;;;;;;6.85;3.88;;;1.70;99.90;;;;;;5018213;28;20242;-82
2021/12/21 00:30:22;;;;;;;7.15;3.25;;;1.70;99.90;;;;;;5017058;28;20069;-87
2021/12/21 00:32:48;;;;;;;10.35;3.70;;;1.60;99.90;;;;;;5017944;28;20027;-81
2021/12/21 00:35:14;;;;;;;7.03;3.35;;;1.60;99.90;;;;;;5014678;28;20115;-83
2021/12/21 00:37:41;;;;;;;5.53;3.17;;;1.70;99.90;;;;;;4995505;28;20036;-85
2021/12/21 00:40:09;;;;;;;7.13;3.55;;;1.60;99.90;;;;;;4995613;28;20060;-85
2021/12/21 00:42:35;;;;;;;12.57;3.50;;;1.60;99.90;;;;;;5012859;28;20026;-85
2021/12/21 00:45:01;;;;;;;9.25;3.60;;;1.60;99.90;;;;;;5014327;28;20030;-83
2021/12/21 00:47:27;;;;;;;8.50;3.70;;;1.60;99.90;;;;;;5016728;28;20089;-83
2021/12/21 00:49:59;;;;;;;8.80;3.63;;;1.60;99.90;;;;;;5018205;28;20014;-87
2021/12/21 00:52:26;;;;;;;8.98;3.55;;;1.60;99.90;;;;;;5017742;28;20030;-83
2021/12/21 00:54:51;;;;;;;8.68;3.63;;;1.60;99.90;;;;;;5018679;28;20022;-82
2021/12/21 00:57:18;;;;;;;5.75;3.10;;;1.60;99.90;;;;;;5018438;28;20074;-83
2021/12/21 00:59:43;;;;;;;9.23;2.88;;;1.60;99.90;;;;;;5019025;28;20015;-83
2021/12/21 01:02:10;;;;;;;8.25;3.47;;;1.60;99.90;;;;;;5018874;28;20037;-82
2021/12/21 01:04:41;;;;;;;6.22;3.10;;;1.60;99.90;;;;;;5019043;28;20034;-80
2021/12/21 01:07:22;;;;;;;9.57;3.70;;;1.60;99.90;;;;;;5018861;28;20030;-81
2021/12/21 01:18:19;;;;;;;8.23;3.50;;;1.60;99.90;;;;;;5017939;28;20041;-85
2021/12/21 01:26:10;;;;;;;8.25;3.67;;;1.50;99.90;;;;;;5018522;28;20090;-83
2021/12/21 01:36:19;;;;;;;10.18;3.75;;;1.40;99.90;;;;;;5018415;28;20018;-81
2021/12/21 01:39:51;;;;;;;10.95;3.42;;;1.40;99.90;;;;;;5017940;28;20053;-82
2021/12/21 01:44:26;;;;;;;6.60;3.50;;;1.40;99.90;;;;;;5002439;28;20065;-85
2021/12/21 01:49:40;;;;;;;11.53;3.20;;;1.40;99.90;;;;;;5013316;28;20127;-81
2021/12/21 01:52:08;;;;;;;6.88;3.22;;;1.40;99.90;;;;;;5053277;23;20161;-85
2021/12/21 01:54:35;;;;;;;7.05;3.58;;;1.40;99.90;;;;;;4996764;28;20040;-84
2021/12/21 01:57:01;;;;;;;6.82;3.42;;;1.40;99.90;;;;;;5017698;28;20022;-84
2021/12/21 01:59:27;;;;;;;4.63;3.25;;;1.40;99.90;;;;;;5016833;28;20023;-84
2021/12/21 02:01:53;;;;;;;8.65;3.58;;;1.40;99.90;;;;;;5007250;28;20445;-83
2021/12/21 02:04:19;;;;;;;4.75;3.30;;;1.30;99.90;;;;;;5017078;28;20033;-83
2021/12/21 02:06:46;;;;;;;5.60;3.20;;;1.30;99.90;;;;;;5017095;28;20054;-84
2021/12/21 02:09:11;;;;;;;5.35;3.13;;;1.40;99.90;;;;;;5009755;28;20026;-85
2021/12/21 02:11:38;;;;;;;6.50;3.03;;;1.30;99.90;;;;;;5011490;28;20081;-84
2021/12/21 02:14:06;;;;;;;10.02;3.72;;;1.30;99.90;;;;;;5010425;28;20037;-85
2021/12/21 02:16:41;;;;;;;9.38;3.65;;;1.20;99.90;;;;;;5007577;28;20045;-86
2021/12/21 02:19:19;;;;;;;6.88;3.75;;;1.30;99.90;;;;;;5011442;28;20031;-84
2021/12/21 02:21:47;;;;;;;7.70;3.25;;;1.30;99.90;;;;;;5010370;28;20086;-84
2021/12/21 02:24:18;;;;;;;8.82;3.65;;;1.20;99.90;;;;;;4992756;28;20026;-83
2021/12/21 02:27:17;;;;;;;7.57;3.90;;;1.20;99.90;;;;;;5013910;28;20035;-81
2021/12/21 02:29:34;;;;;;;6.70;3.67;;;1.20;99.90;;;;;;5015548;28;20022;-85
2021/12/21 02:32:00;;;;;;;7.78;3.42;;;1.20;99.90;;;;;;5021084;28;20015;-84
2021/12/21 02:34:26;;;;;;;6.03;3.60;;;1.20;99.90;;;;;;5020978;28;20026;-85
2021/12/21 02:36:56;;;;;;;8.85;4.13;;;1.10;99.90;;;;;;5014601;28;20061;-85
2021/12/21 02:39:24;;;;;;;9.10;4.20;;;1.10;99.90;;;;;;5020744;28;20026;-85
2021/12/21 02:41:49;;;;;;;8.07;3.97;;;1.10;99.90;;;;;;5021391;28;20014;-83
2021/12/21 02:44:16;;;;;;;7.35;3.85;;;1.00;99.90;;;;;;5012733;28;20034;-83
2021/12/21 02:46:43;;;;;;;6.47;3.50;;;1.00;99.90;;;;;;5013537;28;20106;-83
2021/12/21 02:49:10;;;;;;;8.65;3.45;;;1.00;99.90;;;;;;5008190;28;20034;-86
2021/12/21 02:51:45;;;;;;;5.90;4.00;;;1.00;99.90;;;;;;5012504;28;20042;-84
2021/12/21 02:54:11;;;;;;;;;;;1.00;99.90;;;;;;5013067;28;20448;-84
2021/12/21 02:56:38;;;;;;;5.45;3.67;;;1.00;99.90;;;;;;5008785;28;19913;-84
2021/12/21 02:59:04;;;;;;;8.50;3.45;;;1.00;99.90;;;;;;5008872;28;20093;-84
2021/12/21 03:01:30;;;;;;;8.32;3.60;;;0.90;99.90;;;;;;5008438;28;20090;-86
2021/12/21 03:03:57;;;;;;;10.43;4.05;;;1.00;99.90;;;;;;5009215;28;20034;-84
2021/12/21 03:12:08;;;;;;;5.78;3.25;;;0.90;99.90;;;;;;5020007;28;20052;-85
2021/12/21 03:14:34;;;;;;;7.80;3.87;;;0.90;99.90;;;;;;5015355;28;20034;-85
2021/12/21 03:17:00;;;;;;;6.00;3.00;;;1.00;99.90;;;;;;5017219;28;20014;-83
2021/12/21 03:19:27;;;;;;;5.88;3.20;;;1.00;99.90;;;;;;5019271;28;20042;-83
2021/12/21 03:21:53;;;;;;;6.97;2.72;;;1.00;99.90;;;;;;4996240;28;20022;-84
2021/12/21 03:24:19;;;;;;;7.35;3.10;;;1.00;99.90;;;;;;5008678;28;20065;-85
2021/12/21 03:26:45;;;;;;;9.30;2.85;;;1.00;99.90;;;;;;5010540;28;20490;-83
2021/12/21 03:29:12;;;;;;;6.53;2.92;;;1.00;99.90;;;;;;5010831;28;20027;-84
2021/12/21 03:31:38;;;;;;;8.05;3.53;;;1.00;99.90;;;;;;5009705;28;20039;-83
2021/12/21 03:34:05;;;;;;;5.88;2.90;;;1.00;99.90;;;;;;5012987;28;20030;-84
2021/12/21 03:36:31;;;;;;;7.63;3.28;;;1.00;99.90;;;;;;5014845;28;20022;-83
2021/12/21 03:39:05;;;;;;;7.72;3.55;;;1.00;99.90;;;;;;5010979;28;20038;-83
2021/12/21 03:41:33;;;;;;;5.07;3.17;;;1.00;99.90;;;;;;5009871;28;20033;-83
2021/12/21 03:44:01;;;;;;;6.30;2.70;;;0.90;99.90;;;;;;5011105;28;20030;-82
2021/12/21 03:46:31;;;;;;;6.05;2.83;;;0.90;99.90;;;;;;5000352;28;20029;-84
2021/12/21 03:48:57;;;;;;;6.65;2.83;;;0.90;99.90;;;;;;5006664;28;20394;-86
2021/12/21 03:51:23;;;;;;;6.05;3.50;;;0.90;99.90;;;;;;5006069;28;20038;-85
2021/12/21 03:53:49;;;;;;;10.32;3.33;;;0.80;99.90;;;;;;5008598;28;20105;-84
2021/12/21 03:56:37;;;;;;;5.80;3.38;;;0.80;99.90;;;;;;5010757;28;20030;-83
2021/12/21 03:59:03;;;;;;;6.63;3.30;;;0.80;99.90;;;;;;5016073;28;20042;-82
2021/12/21 04:01:29;;;;;;;5.90;3.15;;;0.80;99.90;;;;;;5015718;28;20069;-84
2021/12/21 04:03:55;;;;;;;5.10;2.60;;;0.80;99.90;;;;;;5013963;28;20099;-83
2021/12/21 04:06:21;;;;;;;9.32;3.30;;;0.80;99.90;;;;;;5015035;28;20045;-84
2021/12/21 04:08:46;;;;;;;8.15;3.03;;;0.80;99.90;;;;;;5014572;28;20032;-84
2021/12/21 04:11:12;;;;;;;5.28;2.50;;;0.80;99.90;;;;;;5008966;28;20026;-82
2021/12/21 04:13:38;;;;;;;6.97;2.80;;;0.80;99.90;;;;;;5005724;28;20034;-83
2021/12/21 04:16:05;;;;;;;4.45;2.58;;;0.80;99.90;;;;;;5014105;28;20054;-84
2021/12/21 04:18:36;;;;;;;7.18;3.30;;;0.80;99.90;;;;;;5017205;28;20026;-84
2021/12/21 04:21:04;;;;;;;4.72;2.83;;;0.80;99.90;;;;;;5008317;28;20034;-82
2021/12/21 04:23:29;;;;;;;5.40;2.47;;;0.70;99.90;;;;;;5007308;28;20046;-83
2021/12/21 04:25:55;;;;;;;9.50;3.35;;;0.80;99.90;;;;;;5007743;28;20097;-84
2021/12/21 04:28:21;;;;;;;4.35;2.60;;;0.80;99.90;;;;;;4994215;28;20022;-85
2021/12/21 04:30:47;;;;;;;3.42;2.40;;;0.80;99.90;;;;;;5014566;28;20042;-84
2021/12/21 04:33:13;;;;;;;5.38;2.65;;;0.70;99.90;;;;;;5018479;28;20065;-84
2021/12/21 04:35:39;;;;;;;4.88;2.50;;;0.70;99.90;;;;;;5019032;28;20030;-84
2021/12/21 04:38:21;;;;;;;4.88;2.47;;;0.70;99.90;;;;;;5018880;28;20030;-85
2021/12/21 04:40:57;;;;;;;9.75;2.72;;;0.70;99.90;;;;;;5019017;28;20037;-85
2021/12/21 04:43:23;;;;;;;6.28;2.22;;;0.70;99.90;;;;;;5018640;28;20018;-85
2021/12/21 04:45:49;;;;;;;3.83;2.63;;;0.70;99.90;;;;;;5018792;28;20045;-84
2021/12/21 04:48:16;;;;;;;5.95;3.05;;;0.70;99.90;;;;;;5015908;28;20089;-84
2021/12/21 04:50:43;;;;;;;3.65;2.35;;;0.70;99.90;;;;;;5016219;28;20030;-86
2021/12/21 04:53:09;;;;;;;7.70;2.65;;;0.70;99.90;;;;;;5017824;28;20015;-84
2021/12/21 04:55:35;;;;;;;7.30;2.47;;;0.70;99.90;;;;;;5018570;28;20026;-85
2021/12/21 04:58:03;;;;;;;6.70;2.85;;;0.70;99.90;;;;;;5017715;28;20026;-84
2021/12/21 05:00:29;;;;;;;7.03;2.45;;;0.70;99.90;;;;;;5018581;28;20080;-84
2021/12/21 05:02:55;;;;;;;7.50;2.35;;;0.70;99.90;;;;;;5001829;28;20030;-85
2021/12/21 05:05:21;;;;;;;5.20;2.72;;;0.60;99.90;;;;;;5017926;28;20029;-84
2021/12/21 05:07:52;;;;;;;4.28;2.88;;;0.60;99.90;;;;;;5018798;28;20101;-84
2021/12/21 05:10:19;;;;;;;4.72;2.40;;;0.60;99.90;;;;;;5018457;28;20125;-85
2021/12/21 05:12:45;;;;;;;5.03;2.65;;;0.60;99.90;;;;;;5018458;28;20021;-85
2021/12/21 05:15:11;;;;;;;5.22;2.60;;;0.60;99.90;;;;;;5017889;28;20038;-85
2021/12/21 05:17:38;;;;;;;5.25;2.83;;;0.60;99.90;;;;;;5001685;28;20021;-84
2021/12/21 05:20:04;;;;;;;6.07;2.50;;;0.60;99.90;;;;;;5018491;28;20013;-84
2021/12/21 05:22:30;;;;;;;5.63;3.50;;;0.60;99.90;;;;;;5017627;28;20037;-84
2021/12/21 05:24:56;;;;;;;6.78;3.40;;;0.60;99.90;;;;;;5018353;28;20078;-84
2021/12/21 05:27:23;;;;;;;7.35;3.45;;;0.60;99.90;;;;;;5017894;28;20123;-85
2021/12/21 05:29:50;;;;;;;6.65;3.00;;;0.60;99.90;;;;;;5018342;28;20103;-85
2021/12/21 05:32:16;;;;;;;14.48;2.88;;;0.60;99.90;;;;;;5018584;28;20094;-84
2021/12/21 05:34:42;;;;;;;8.70;3.33;;;0.60;99.90;;;;;;5018641;28;20030;-84
2021/12/21 05:37:09;;;;;;;6.35;2.70;;;0.60;99.90;;;;;;5001583;28;20068;-85
2021/12/21 05:39:50;;;;;;;7.00;2.83;;;0.60;99.90;;;;;;5017887;28;20050;-85
2021/12/21 05:42:16;;;;;;;7.60;2.72;;;0.60;99.90;;;;;;5018544;28;20030;-84
2021/12/21 05:44:42;;;;;;;8.73;2.97;;;0.60;99.90;;;;;;5000826;28;20030;-85
2021/12/21 05:47:08;;;;;;;6.25;2.92;;;0.50;99.90;;;;;;5001593;28;20023;-85
2021/12/21 05:49:34;;;;;;;4.63;3.00;;;0.50;99.90;;;;;;5018560;28;20023;-84
2021/12/21 05:52:00;;;;;;;9.77;3.30;;;0.50;99.90;;;;;;5017360;28;20041;-84
2021/12/21 05:54:26;;;;;;;8.23;2.92;;;0.50;99.90;;;;;;5017807;28;20023;-83
2021/12/21 05:56:52;;;;;;;7.00;3.28;;;0.50;99.90;;;;;;5018431;28;20031;-85
2021/12/21 05:59:18;;;;;;;6.63;3.15;;;0.50;99.90;;;;;;5017526;28;20030;-84
2021/12/21 06:01:44;;;;;;;9.02;3.25;;;0.50;99.90;;;;;;5017290;28;20042;-85
2021/12/21 06:04:09;;;;;;;8.20;2.53;;;0.50;99.90;;;;;;5018479;28;20026;-85
2021/12/21 06:06:35;;;;;;;5.95;3.30;;;0.50;99.90;;;;;;5017522;28;20065;-85
2021/12/21 06:09:06;;;;;;;6.82;3.13;;;0.50;99.90;;;;;;5017145;28;20090;-84
2021/12/21 06:11:35;;;;;;;8.77;3.00;;;0.50;99.90;;;;;;5017423;28;20034;-84
2021/12/21 06:27:27;;;;;;;7.50;3.38;;;0.40;99.90;;;;;;5016722;28;20061;-84
2021/12/21 06:29:53;;;;;;;30.75;13.13;;;0.40;99.90;;;;;;5009219;28;20038;-84
2021/12/21 06:32:19;;;;;;;34.30;15.02;;;0.40;99.90;;;;;;5015663;28;20045;-83
2021/12/21 06:34:45;;;;;;;6.32;3.53;;;0.40;99.90;;;;;;5016681;28;20022;-85
2021/12/21 06:37:11;;;;;;;6.20;2.63;;;0.40;99.90;;;;;;5017451;28;20050;-86
2021/12/21 06:39:37;;;;;;;8.65;3.97;;;0.40;99.90;;;;;;5016842;28;20010;-86
2021/12/21 06:42:04;;;;;;;13.32;3.40;;;0.40;99.90;;;;;;5017119;28;20022;-84
2021/12/21 06:44:30;;;;;;;7.63;3.40;;;0.40;99.90;;;;;;5016833;28;20014;-85
2021/12/21 06:52:26;;;;;;;9.43;3.50;;;0.40;99.90;;;;;;5017439;28;20034;-85
2021/12/21 06:54:52;;;;;;;6.10;3.35;;;0.40;99.90;;;;;;5017909;28;20026;-84
2021/12/21 06:57:18;;;;;;;10.68;3.97;;;0.40;99.90;;;;;;5021011;28;20021;-85
2021/12/21 06:59:44;;;;;;;7.40;3.65;;;0.40;99.90;;;;;;5020888;28;20021;-85
2021/12/21 07:02:10;;;;;;;6.43;3.55;;;0.50;99.90;;;;;;5021349;28;20057;-85
2021/12/21 07:04:36;;;;;;;7.20;3.78;;;0.50;99.90;;;;;;5021278;28;20045;-86
2021/12/21 07:07:02;;;;;;;11.93;3.67;;;0.60;99.90;;;;;;5020732;28;20050;-85
2021/12/21 07:09:42;;;;;;;12.45;3.92;;;0.60;99.90;;;;;;5021388;28;20028;-86
2021/12/21 07:20:28;;;;;;;8.55;3.72;;;0.70;99.90;;;;;;5021049;28;20015;-83
2021/12/21 07:22:55;;;;;;;8.35;3.40;;;0.80;99.90;;;;;;5020838;28;20082;-85
2021/12/21 07:25:21;;;;;;;7.97;3.88;;;0.80;99.90;;;;;;5021005;28;20093;-85
2021/12/21 07:27:47;;;;;;;7.05;3.42;;;0.80;99.90;;;;;;5021116;28;20057;-84
2021/12/21 07:30:13;;;;;;;11.77;3.83;;;0.90;99.90;;;;;;5020326;28;20018;-85
2021/12/21 07:32:39;;;;;;;7.57;3.75;;;0.90;99.90;;;;;;5020758;28;20018;-86
2021/12/21 07:35:06;;;;;;;9.73;4.20;;;1.00;99.90;;;;;;5020777;28;20033;-86
2021/12/21 07:37:31;;;;;;;8.23;3.75;;;1.10;99.90;;;;;;5019708;28;20023;-85
2021/12/21 07:39:57;;;;;;;8.43;3.65;;;1.20;99.90;;;;;;5020528;28;20086;-84
2021/12/21 07:42:23;;;;;;;9.32;4.07;;;1.20;99.90;;;;;;5019686;28;20037;-84
2021/12/21 07:44:49;;;;;;;8.40;3.85;;;1.30;99.90;;;;;;5019476;28;20053;-85
2021/12/21 07:47:16;;;;;;;12.73;5.55;;;1.30;99.90;;;;;;5019185;28;20057;-85
2021/12/21 07:49:42;;;;;;;10.75;4.03;;;1.40;99.90;;;;;;5018487;28;20094;-86
2021/12/21 07:52:09;;;;;;;15.27;4.78;;;1.40;99.90;;;;;;5039557;23;20054;-88
2021/12/21 07:54:35;;;;;;;13.55;4.22;;;1.40;99.90;;;;;;5014882;28;20034;-90
2021/12/21 07:57:02;;;;;;;20.58;4.28;;;1.50;99.90;;;;;;4998749;28;20064;-88
2021/12/21 07:59:28;;;;;;;11.07;4.10;;;1.50;99.90;;;;;;5013981;28;20031;-88
2021/12/21 08:01:54;;;;;;;9.95;4.50;;;1.60;99.90;;;;;;5012375;28;20081;-87
2021/12/21 08:04:27;;;;;;;22.40;4.10;;;1.70;99.90;;;;;;5013157;28;20042;-87
2021/12/21 08:06:55;;;;;;;8.77;4.40;;;1.80;99.90;;;;;;5013690;28;20497;-89
2021/12/21 08:09:22;;;;;;;8.30;3.40;;;1.90;99.90;;;;;;5011726;28;20015;-88
2021/12/21 08:12:33;;;;;;;10.73;3.50;;;2.20;99.90;;;;;;5011174;28;20026;-87
2021/12/21 08:14:34;;;;;;;6.30;3.10;;;2.40;99.90;;;;;;5008184;28;20058;-87
2021/12/21 08:17:00;;;;;;;6.88;3.65;;;2.70;99.90;;;;;;5009645;28;20046;-85
2021/12/21 08:19:25;;;;;;;10.63;4.10;;;3.10;99.90;;;;;;4988889;28;20041;-85
2021/12/21 08:21:51;;;;;;;10.00;5.47;;;3.50;99.90;;;;;;5008603;28;20038;-85
2021/12/21 08:24:17;;;;;;;9.52;3.40;;;3.60;99.90;;;;;;5012637;28;20022;-86
2021/12/21 08:26:43;;;;;;;8.90;3.38;;;3.70;99.90;;;;;;5011430;28;20030;-88
2021/12/21 08:29:08;;;;;;;10.25;3.63;;;3.60;99.90;;;;;;5010266;28;20030;-86
2021/12/21 08:31:34;;;;;;;8.60;3.33;;;3.70;99.90;;;;;;5013595;28;20046;-84
2021/12/21 08:34:00;;;;;;;4.80;2.65;;;4.60;99.90;;;;;;5009109;28;20498;-87
2021/12/21 08:36:26;;;;;;;9.50;3.13;;;5.80;99.70;;;;;;5008937;28;20035;-85
2021/12/21 08:38:52;;;;;;;7.38;2.83;;;6.80;97.50;;;;;;5008718;28;20042;-85
2021/12/21 08:41:20;;;;;;;5.05;3.00;;;7.90;95.20;;;;;;5013645;28;20022;-84
2021/12/21 08:43:47;;;;;;;8.88;3.40;;;9.20;93.00;;;;;;5012958;28;20073;-87
2021/12/21 08:46:13;;;;;;;9.63;3.50;;;10.20;90.20;;;;;;5005998;28;20030;-89
2021/12/21 08:48:39;;;;;;;8.13;2.85;;;11.40;86.50;;;;;;5005475;28;20023;-87
2021/12/21 08:51:05;;;;;;;6.55;2.90;;;12.00;81.50;;;;;;5005351;28;20054;-86
2021/12/21 08:53:32;;;;;;;6.85;2.78;;;12.30;78.80;;;;;;5014013;28;20041;-86
2021/12/21 08:55:58;;;;;;;5.90;2.92;;;12.80;75.80;;;;;;5010759;28;20024;-85
2021/12/21 08:58:24;;;;;;;9.63;3.10;;;13.10;74.70;;;;;;5009720;28;20054;-88
2021/12/21 09:00:50;;;;;;;5.80;2.72;;;13.60;72.50;;;;;;5008923;28;20018;-84
2021/12/21 09:03:17;;;;;;;9.77;2.90;;;13.70;71.50;;;;;;5007751;28;20034;-86
2021/12/21 09:05:42;;;;;;;4.97;2.92;;;14.30;69.10;;;;;;5008656;28;20046;-85
2021/12/21 09:08:10;;;;;;;3.75;2.10;;;15.00;68.20;;;;;;5008390;28;20026;-85
2021/12/21 09:10:38;;;;;;;5.30;2.33;;;15.70;64.20;;;;;;5006954;28;20041;-87
2021/12/21 09:13:04;;;;;;;3.13;2.17;;;15.70;62.80;;;;;;5005445;28;20018;-88
2021/12/21 09:15:30;;;;;;;6.55;2.25;;;16.00;62.00;;;;;;5006969;28;20046;-86
2021/12/21 09:17:57;;;;;;;3.15;1.88;;;16.10;60.50;;;;;;5007663;28;20069;-85
2021/12/21 09:20:26;;;;;;;6.32;2.58;;;16.00;59.80;;;;;;5010441;28;20090;-85
2021/12/21 09:22:52;;;;;;;4.28;2.20;;;16.20;59.90;;;;;;5008481;28;20034;-87
2021/12/21 09:25:18;;;;;;;7.05;2.83;;;17.10;58.60;;;;;;5006722;28;20066;-89
2021/12/21 09:27:45;;;;;;;5.32;1.85;;;17.30;57.50;;;;;;5007640;28;20034;-87
2021/12/21 09:30:13;;;;;;;3.95;2.47;;;17.40;56.40;;;;;;5007665;28;20565;-88
2021/12/21 09:32:39;;;;;;;4.00;2.53;;;16.80;57.30;;;;;;5012444;28;20042;-85
2021/12/21 09:35:05;;;;;;;5.55;2.35;;;16.80;57.30;;;;;;5005579;28;20037;-85
2021/12/21 09:37:32;;;;;;;7.50;2.80;;;16.90;57.80;;;;;;5006679;28;20041;-86
2021/12/21 09:39:58;;;;;;;5.50;2.72;;;16.80;58.00;;;;;;5012207;28;20015;-85
2021/12/21 09:42:29;;;;;;;5.75;3.28;;;16.40;57.90;;;;;;5014717;28;20069;-84
2021/12/21 09:44:57;;;;;;;5.25;3.05;;;16.30;58.10;;;;;;5012220;28;20054;-85
2021/12/21 09:47:24;;;;;;;6.32;2.90;;;16.50;57.80;;;;;;5012280;28;20066;-87
2021/12/21 09:49:50;;;;;;;7.68;2.70;;;16.70;57.40;;;;;;5008211;28;20030;-86
2021/12/21 09:52:22;;;;;;;5.90;2.55;;;16.70;57.10;;;;;;5007369;28;20026;-87
2021/12/21 09:54:49;;;;;;;5.43;2.13;;;16.40;56.70;;;;;;5010042;28;20018;-82
2021/12/21 09:57:18;;;;;;;4.70;2.20;;;16.30;56.20;;;;;;5010542;28;20049;-86
2021/12/21 09:59:45;;;;;;;4.05;2.03;;;16.20;56.40;;;;;;5008030;28;20061;-85
2021/12/21 10:02:12;;;;;;;4.50;2.40;;;16.00;56.60;;;;;;5008583;28;20027;-87
2021/12/21 10:05:09;;;;;;;5.40;2.58;;;16.10;56.60;;;;;;5007881;28;20078;-85
2021/12/21 10:07:36;;;;;;;9.13;2.45;;;15.90;56.70;;;;;;5006457;28;20046;-87
2021/12/21 10:10:14;;;;;;;4.35;2.20;;;16.10;56.80;;;;;;5010552;28;20029;-85
2021/12/21 10:12:43;;;;;;;3.40;2.05;;;16.80;55.60;;;;;;5007071;28;20117;-85
2021/12/21 10:15:17;;;;;;;7.65;2.17;;;17.40;54.80;;;;;;5004472;28;20027;-86
2021/12/21 10:17:57;;;;;;;4.75;2.25;;;17.60;53.70;;;;;;5004800;28;20038;-86
2021/12/21 10:20:38;;;;;;;4.35;1.80;;;17.90;52.90;;;;;;5003723;28;20096;-85
2021/12/21 10:23:21;;;;;;;4.32;1.98;;;17.30;52.60;;;;;;5004808;28;20045;-85
2021/12/21 10:25:48;;;;;;;4.18;1.85;;;16.10;53.70;;;;;;5004395;28;20065;-85
2021/12/21 10:28:29;;;;;;;4.88;1.55;;;15.50;54.90;;;;;;5006858;28;20042;-87
2021/12/21 10:30:56;;;;;;;2.30;1.73;;;15.80;54.40;;;;;;5007004;28;20030;-84
2021/12/21 10:33:29;;;;;;;4.80;2.05;;;16.20;54.40;;;;;;5013070;28;20022;-87
2021/12/21 10:35:57;;;;;;;1.92;1.40;;;16.70;53.30;;;;;;5013598;28;20038;-84
2021/12/21 10:38:31;;;;;;;3.38;1.75;;;17.50;52.40;;;;;;5014766;28;20027;-85
2021/12/21 10:41:10;;;;;;;3.30;1.77;;;17.50;52.40;;;;;;5013389;28;20045;-85
2021/12/21 10:43:36;;;;;;;3.72;1.60;;;18.00;51.20;;;;;;5011326;28;20262;-85
2021/12/21 10:46:03;;;;;;;3.30;1.88;;;17.90;50.90;;;;;;5014980;28;20030;-85
2021/12/21 10:48:35;;;;;;;3.47;1.83;;;17.70;51.20;;;;;;5017207;28;20054;-83
2021/12/21 10:51:02;;;;;;;3.67;2.08;;;17.70;52.00;;;;;;5017449;28;20037;-86
2021/12/21 10:53:28;;;;;;;3.05;1.70;;;17.80;51.20;;;;;;5013408;28;20053;-85
2021/12/21 10:56:09;;;;;;;3.30;1.65;;;17.10;52.20;;;;;;5010781;28;20022;-84
2021/12/21 10:58:42;;;;;;;7.22;1.80;;;17.10;51.90;;;;;;5012824;28;20034;-85
2021/12/21 11:01:15;;;;;;;6.90;2.05;;;17.60;51.20;;;;;;5013245;28;20041;-83
2021/12/21 11:03:55;;;;;;;2.10;1.65;;;17.90;51.30;;;;;;5012686;28;20057;-85
2021/12/21 11:06:34;;;;;;;3.25;1.83;;;17.90;50.90;;;;;;5010782;28;20026;-87
2021/12/21 11:09:04;;;;;;;3.42;1.90;;;18.20;50.20;;;;;;5000419;28;20070;-83
2021/12/21 11:11:43;;;;;;;5.03;2.00;;;16.80;51.00;;;;;;5019799;28;20010;-82
2021/12/21 11:14:13;;;;;;;4.75;1.52;;;16.30;52.00;;;;;;5019643;28;20068;-84
2021/12/21 11:16:50;;;;;;;3.30;1.70;;;16.50;51.80;;;;;;5019761;28;20023;-84
2021/12/21 11:19:20;;;;;;;1.90;1.50;;;17.10;50.90;;;;;;5017949;28;20054;-82
2021/12/21 11:21:46;;;;;;;2.97;1.70;;;17.20;50.70;;;;;;5018517;28;20033;-83
2021/12/21 11:24:15;;;;;;;2.20;1.52;;;17.40;50.80;;;;;;5016622;28;20168;-86
2021/12/21 11:26:43;;;;;;;2.63;1.70;;;17.60;49.90;;;;;;5010123;28;20018;-84
2021/12/21 11:29:14;;;;;;;2.80;1.50;;;17.80;50.00;;;;;;5012718;28;20034;-85
2021/12/21 11:31:43;;;;;;;3.42;1.65;;;17.70;49.50;;;;;;5009610;28;20109;-84
2021/12/21 11:34:15;;;;;;;2.58;1.70;;;17.60;49.50;;;;;;5011017;28;20381;-87
2021/12/21 11:39:32;;;;;;;7.95;1.70;;;17.70;49.30;;;;;;5013313;28;20042;-86
2021/12/21 11:42:04;;;;;;;3.20;1.73;;;16.70;49.40;;;;;;5012594;28;20101;-86
2021/12/21 11:45:03;;;;;;;3.67;1.65;;;15.30;51.00;;;;;;5013453;28;20033;-83
2021/12/21 11:47:38;;;;;;;3.10;1.60;;;13.80;53.40;;;;;;5018711;28;20046;-84
2021/12/21 11:50:09;;;;;;;3.80;1.80;;;12.60;54.70;;;;;;5019540;28;20034;-85
2021/12/21 11:52:45;;;;;;;4.47;2.10;;;11.40;56.80;;;;;;5019357;28;20057;-84
2021/12/21 11:55:11;;;;;;;4.20;2.15;;;10.60;58.50;;;;;;5019422;28;20033;-82
2021/12/21 11:57:45;;;;;;;3.13;2.28;;;9.70;59.70;;;;;;5019757;28;20034;-84
2021/12/21 12:00:17;;;;;;;2.77;1.93;;;9.20;60.90;;;;;;5016427;28;20085;-86
2021/12/21 12:02:45;;;;;;;5.22;1.92;;;8.90;61.10;;;;;;5008172;28;20301;-87
2021/12/21 12:05:29;;;;;;;5.07;1.80;;;8.50;61.90;;;;;;5008540;28;20030;-84
2021/12/21 12:08:13;;;;;;;5.93;2.20;;;8.10;63.00;;;;;;5011856;28;20544;-83
2021/12/21 12:10:48;;;;;;;5.55;2.22;;;7.80;64.10;;;;;;5008697;28;20062;-89
2021/12/21 12:13:18;;;;;;;5.22;2.15;;;7.60;64.20;;;;;;5006332;28;20045;-87
2021/12/21 12:15:52;;;;;;;3.60;2.03;;;7.20;65.30;;;;;;5006654;28;20033;-86
2021/12/21 12:18:24;;;;;;;5.75;2.60;;;6.90;66.10;;;;;;5007554;28;20029;-85
2021/12/21 12:20:50;;;;;;;3.85;2.30;;;6.80;66.70;;;;;;5008860;28;20114;-87
2021/12/21 12:23:19;;;;;;;4.97;2.20;;;6.70;67.30;;;;;;4990257;28;20026;-86
2021/12/21 12:26:03;;;;;;;2.40;2.13;;;6.50;67.50;;;;;;5007432;28;20041;-85
2021/12/21 12:28:35;;;;;;;3.87;2.00;;;6.50;68.00;;;;;;5007186;28;20422;-87
2021/12/21 12:31:02;;;;;;;6.80;2.22;;;6.60;68.50;;;;;;5008033;28;20041;-87
2021/12/21 12:33:39;;;;;;;5.82;2.42;;;6.60;68.10;;;;;;5007530;28;20526;-87
2021/12/21 12:36:06;;;;;;;4.95;2.10;;;6.60;68.10;;;;;;5008511;28;20065;-87
2021/12/21 12:38:41;;;;;;;6.93;1.83;;;6.60;67.80;;;;;;5011236;28;20033;-86
2021/12/21 12:41:13;;;;;;;2.58;2.10;;;6.50;67.70;;;;;;5009354;28;20034;-87
2021/12/21 12:43:42;;;;;;;3.50;1.55;;;6.50;68.10;;;;;;5013798;28;20094;-85
2021/12/21 12:46:09;;;;;;;1.98;1.63;;;6.40;68.10;;;;;;5011492;28;20109;-87
2021/12/21 12:48:47;;;;;;;5.40;2.10;;;6.40;68.60;;;;;;4995992;28;20039;-84
2021/12/21 12:51:29;;;;;;;4.38;2.17;;;6.30;68.80;;;;;;5005960;28;20058;-87
2021/12/21 12:53:56;;;;;;;2.85;1.90;;;6.10;69.80;;;;;;5007533;28;20049;-85
2021/12/21 12:56:21;;;;;;;4.78;2.75;;;6.00;70.50;;;;;;5006801;28;20018;-87
2021/12/21 12:59:01;;;;;;;3.40;2.20;;;6.00;70.90;;;;;;5006616;28;20171;-86
2021/12/21 13:01:31;;;;;;;8.70;2.17;;;5.90;71.70;;;;;;5005369;28;20026;-86
2021/12/21 13:04:08;;;;;;;4.32;2.10;;;5.80;72.10;;;;;;5007036;28;20030;-85
2021/12/21 13:06:36;;;;;;;2.92;1.55;;;5.80;72.10;;;;;;5005962;28;20049;-87
2021/12/21 13:09:09;;;;;;;3.00;1.70;;;5.80;71.40;;;;;;5005750;28;20023;-87
2021/12/21 13:11:37;;;;;;;3.60;1.70;;;5.80;71.50;;;;;;5006550;28;20038;-87
2021/12/21 13:14:03;;;;;;;5.60;1.90;;;5.70;72.40;;;;;;5006062;28;20030;-87
2021/12/21 13:16:34;;;;;;;5.13;2.22;;;5.60;72.90;;;;;;4992736;28;20091;-83
2021/12/21 13:19:03;;;;;;;5.25;2.22;;;5.60;73.00;;;;;;5016675;28;20049;-85
2021/12/21 13:21:32;;;;;;;3.10;1.85;;;5.60;73.10;;;;;;5007101;28;20115;-88
2021/12/21 13:24:09;;;;;;;5.78;2.20;;;5.70;73.20;;;;;;5015643;28;20066;-88
2021/12/21 13:26:36;;;;;;;3.95;1.90;;;5.70;73.70;;;;;;5009221;28;20097;-86
2021/12/21 13:29:04;;;;;;;4.60;2.13;;;5.50;74.00;;;;;;5006910;28;20026;-87
2021/12/21 13:31:30;;;;;;;5.82;2.22;;;5.30;74.80;;;;;;5009367;28;20289;-86
2021/12/21 13:33:59;;;;;;;3.95;2.08;;;5.30;75.40;;;;;;5006868;28;20023;-87
2021/12/21 13:36:46;;;;;;;12.93;1.90;;;5.30;75.50;;;;;;5006464;28;20065;-87
2021/12/21 13:39:18;;;;;;;3.22;1.83;;;5.30;75.60;;;;;;5006140;28;20038;-87
2021/12/21 13:41:57;;;;;;;5.65;2.42;;;5.30;76.40;;;;;;5004943;28;20426;-86
2021/12/21 13:44:28;;;;;;;6.55;3.15;;;5.30;76.80;;;;;;5005183;28;20378;-86
2021/12/21 13:46:56;;;;;;;5.97;2.90;;;5.30;77.60;;;;;;5004840;28;20031;-85
2021/12/21 13:49:22;;;;;;;7.28;2.75;;;5.20;78.60;;;;;;5003619;28;20493;-86
2021/12/21 13:51:55;;;;;;;5.68;2.58;;;5.10;79.80;;;;;;5002300;28;20092;-88
2021/12/21 13:54:23;;;;;;;4.20;2.40;;;5.00;80.40;;;;;;5031317;23;20103;-86
2021/12/21 13:56:49;;;;;;;5.20;2.53;;;5.00;80.40;;;;;;5007267;28;20034;-85
2021/12/21 13:59:17;;;;;;;3.95;2.20;;;5.00;80.80;;;;;;5007089;28;20088;-85
2021/12/21 14:01:46;;;;;;;7.55;2.53;;;4.90;81.00;;;;;;5002240;28;20091;-86
2021/12/21 14:04:15;;;;;;;7.97;2.67;;;4.90;82.10;;;;;;5005749;28;20110;-87
2021/12/21 14:06:43;;;;;;;7.25;3.22;;;4.80;82.60;;;;;;5008182;28;20037;-86